Terminal Aerodrome Forecast
Issued by NWS

Home | Current Version | Previous Version | Text Only | Print | Product List | Glossary On
Versions: 1 2 3 4 5 6 7 8 9 10 11 12 13 14 15
625
FTUS41 KPBZ 241720
TAFMGW
TAF
KMGW 241720Z 2418/2518 21007KT P6SM SKC
     FM250300 20007KT P6SM SCT200 WS020/23040KT
     FM251200 21008KT P6SM BKN120
     FM251500 23009KT P6SM VCSH BKN060=

USA.gov is the U.S. government's official web portal to all federal, state and local government web resources and services.